Time;durP1;ratioP1;P1;durP2;ratioP2;P2;SDS_P1;SDS_P2;PMS_P1;PMS_P2;Temp;Humidity;BMP_temperature;BMP_pressure;BME280_temperature;BME280_humidity;BME280_pressure;Samples;Min_cycle;Max_cycle;Signal;HPM_P1;HPM_P2
2023/08/13 00:00:41;;;;;;;;;;;15.90;78.70;;;;;;4177508;28;19919;-83
2023/08/13 00:03:02;;;;;;;;;;;15.80;78.70;;;;;;4178295;28;20015;-82
2023/08/13 00:05:05;;;;;;;;;;;15.80;78.70;;;;;;4178798;28;19917;-82
2023/08/13 00:07:26;;;;;;;;;;;15.80;78.70;;;;;;4174328;28;19909;-82
2023/08/13 00:09:46;;;;;;;;;;;15.80;78.60;;;;;;4176661;28;19917;-82
2023/08/13 00:12:07;;;;;;;;;;;15.80;78.60;;;;;;4179451;28;19923;-82
2023/08/13 00:14:27;;;;;;;;;;;15.70;78.50;;;;;;4176136;28;19992;-81
2023/08/13 00:16:48;;;;;;;;;;;15.70;78.40;;;;;;4177701;28;19967;-80
2023/08/13 00:19:09;;;;;;;;;;;15.70;78.40;;;;;;4172972;28;19920;-82
2023/08/13 00:21:30;;;;;;;;;;;15.70;78.50;;;;;;4179071;28;19920;-82
2023/08/13 00:23:50;;;;;;;;;;;15.70;78.40;;;;;;4182677;28;19999;-81
2023/08/13 00:26:11;;;;;;;;;;;15.70;78.40;;;;;;4174757;28;19916;-81
2023/08/13 00:28:31;;;;;;;;;;;15.60;78.30;;;;;;4189151;28;19956;-82
2023/08/13 00:30:41;;;;;;;;;;;15.60;78.40;;;;;;4180439;28;20350;-82
2023/08/13 00:32:42;;;;;;;;;;;15.50;78.30;;;;;;4173843;28;19921;-82
2023/08/13 00:34:52;;;;;;;;;;;15.50;78.30;;;;;;4177476;28;19913;-82
2023/08/13 00:37:13;;;;;;;;;;;15.50;78.30;;;;;;4181646;28;19909;-81
2023/08/13 00:39:33;;;;;;;;;;;15.50;78.30;;;;;;4182570;28;19917;-82
2023/08/13 00:41:54;;;;;;;;;;;15.50;78.30;;;;;;4176237;28;19931;-81
2023/08/13 00:44:14;;;;;;;;;;;15.50;78.30;;;;;;4180211;28;19917;-82
2023/08/13 00:46:35;;;;;;;;;;;15.40;78.20;;;;;;4180180;28;19967;-82
2023/08/13 00:48:59;;;;;;;;;;;15.40;78.30;;;;;;4188676;28;19923;-81
2023/08/13 00:51:22;;;;;;;;;;;15.50;78.40;;;;;;4178545;28;19917;-82
2023/08/13 00:53:23;;;;;;;;;;;15.40;78.30;;;;;;4181679;28;19913;-81
2023/08/13 00:55:24;;;;;;;;;;;15.30;78.20;;;;;;4185927;28;19947;-82
2023/08/13 00:57:25;;;;;;;;;;;15.30;78.20;;;;;;4185324;28;20003;-84
2023/08/13 00:59:26;;;;;;;;;;;15.30;78.20;;;;;;4182776;28;19963;-85
2023/08/13 01:01:27;;;;;;;;;;;15.30;78.20;;;;;;4186252;28;19959;-84
2023/08/13 01:03:28;;;;;;;;;;;15.40;78.20;;;;;;4191009;28;19932;-83
2023/08/13 01:05:48;;;;;;;;;;;15.30;78.10;;;;;;4194933;28;19919;-83
2023/08/13 01:08:28;;;;;;;;;;;15.30;78.20;;;;;;4182441;28;19959;-85
2023/08/13 01:10:33;;;;;;;;;;;15.20;78.20;;;;;;4185742;28;19950;-82
2023/08/13 01:13:02;;;;;;;;;;;15.20;78.20;;;;;;4180908;28;19992;-81
2023/08/13 01:15:33;;;;;;;;;;;15.10;78.30;;;;;;4202578;22;19971;-85
2023/08/13 01:17:55;;;;;;;;;;;15.10;78.30;;;;;;4173643;28;20410;-85
2023/08/13 01:20:16;;;;;;;;;;;15.20;78.40;;;;;;4176269;28;19923;-85
2023/08/13 01:22:37;;;;;;;;;;;15.10;78.30;;;;;;4172673;28;19916;-86
2023/08/13 01:24:57;;;;;;;;;;;15.10;78.30;;;;;;4172380;28;19916;-85
2023/08/13 01:27:26;;;;;;;;;;;15.10;78.30;;;;;;4173262;28;19913;-85
2023/08/13 01:30:04;;;;;;;;;;;15.10;78.30;;;;;;4173429;28;19912;-84
2023/08/13 01:32:29;;;;;;;;;;;15.00;78.20;;;;;;4173840;28;19929;-85
2023/08/13 01:34:50;;;;;;;;;;;15.00;78.20;;;;;;4172620;28;19920;-85
2023/08/13 01:37:12;;;;;;;;;;;15.00;78.30;;;;;;4173797;28;19988;-85
2023/08/13 01:39:20;;;;;;;;;;;15.00;78.30;;;;;;4173137;28;19920;-85
2023/08/13 01:41:20;;;;;;;;;;;15.00;78.30;;;;;;4172678;28;19920;-85
2023/08/13 01:43:21;;;;;;;;;;;15.00;78.30;;;;;;4172580;28;19939;-85
2023/08/13 01:45:22;;;;;;;;;;;14.90;78.20;;;;;;4170799;28;19943;-86
2023/08/13 01:47:22;;;;;;;;;;;14.90;78.20;;;;;;4172407;28;19913;-85
2023/08/13 01:49:23;;;;;;;;;;;15.00;78.40;;;;;;4173158;28;20279;-85
2023/08/13 01:51:23;;;;;;;;;;;14.90;78.30;;;;;;4170877;28;19913;-85
2023/08/13 01:53:24;;;;;;;;;;;14.90;78.20;;;;;;4171011;28;20317;-85
2023/08/13 01:55:25;;;;;;;;;;;14.80;78.20;;;;;;4175629;28;20336;-85
2023/08/13 01:57:25;;;;;;;;;;;14.80;78.20;;;;;;4174948;28;20333;-85
2023/08/13 01:59:26;;;;;;;;;;;14.90;78.20;;;;;;4170008;28;19909;-86
2023/08/13 02:01:26;;;;;;;;;;;14.90;78.20;;;;;;4174521;28;20274;-85
2023/08/13 02:03:27;;;;;;;;;;;14.90;78.20;;;;;;4171762;28;19985;-85
2023/08/13 02:05:27;;;;;;;;;;;14.90;78.20;;;;;;4175342;28;20302;-85
2023/08/13 02:07:28;;;;;;;;;;;14.80;78.10;;;;;;4176550;28;19908;-85
2023/08/13 02:09:29;;;;;;;;;;;14.80;78.10;;;;;;4171703;28;19909;-85
2023/08/13 02:11:30;;;;;;;;;;;14.80;78.20;;;;;;4172573;28;19967;-85
2023/08/13 02:13:30;;;;;;;;;;;14.70;78.20;;;;;;4169476;28;19916;-86
2023/08/13 02:15:31;;;;;;;;;;;14.80;78.20;;;;;;4170030;28;19921;-85
2023/08/13 02:17:31;;;;;;;;;;;14.70;78.10;;;;;;4170202;28;20397;-85
2023/08/13 02:19:32;;;;;;;;;;;14.70;78.10;;;;;;4174797;28;20481;-85
2023/08/13 02:21:32;;;;;;;;;;;14.80;78.20;;;;;;4172257;28;19995;-85
2023/08/13 02:23:33;;;;;;;;;;;14.70;78.20;;;;;;4171943;28;20310;-85
2023/08/13 02:25:37;;;;;;;;;;;14.80;78.30;;;;;;4176022;28;20002;-85
2023/08/13 02:27:38;;;;;;;;;;;14.70;78.20;;;;;;4171414;28;20007;-83
2023/08/13 02:29:38;;;;;;;;;;;14.70;78.30;;;;;;4172624;28;19916;-85
2023/08/13 02:31:39;;;;;;;;;;;14.70;78.30;;;;;;4155081;28;20050;-85
2023/08/13 02:33:39;;;;;;;;;;;14.70;78.40;;;;;;4175163;28;19978;-85
2023/08/13 02:35:40;;;;;;;;;;;14.70;78.60;;;;;;4170967;28;19936;-85
2023/08/13 02:37:41;;;;;;;;;;;14.70;78.50;;;;;;4172513;28;19950;-85
2023/08/13 02:39:41;;;;;;;;;;;14.80;78.50;;;;;;4175950;28;20299;-85
2023/08/13 02:41:42;;;;;;;;;;;14.60;78.30;;;;;;4173600;28;20345;-85
2023/08/13 02:43:52;;;;;;;;;;;14.80;78.40;;;;;;4175332;28;20515;-84
2023/08/13 02:45:54;;;;;;;;;;;14.60;78.40;;;;;;4173692;28;19916;-85
2023/08/13 02:47:56;;;;;;;;;;;14.70;78.40;;;;;;4177111;28;19917;-85
2023/08/13 02:49:57;;;;;;;;;;;14.60;78.30;;;;;;4173590;28;19924;-85
2023/08/13 02:51:57;;;;;;;;;;;14.70;78.50;;;;;;4175442;28;19913;-85
2023/08/13 02:53:58;;;;;;;;;;;14.70;78.50;;;;;;4171638;28;19917;-85
2023/08/13 02:55:58;;;;;;;;;;;14.70;79.20;;;;;;4170587;28;20519;-85
2023/08/13 02:57:59;;;;;;;;;;;14.70;78.50;;;;;;4176583;28;20278;-85
2023/08/13 02:59:59;;;;;;;;;;;14.60;78.50;;;;;;4177221;28;19913;-85
2023/08/13 03:02:00;;;;;;;;;;;14.70;78.50;;;;;;4172597;28;20289;-85
2023/08/13 03:04:03;;;;;;;;;;;14.80;78.70;;;;;;4171444;28;20133;-85
2023/08/13 03:06:03;;;;;;;;;;;14.60;78.50;;;;;;4172766;28;20387;-86
2023/08/13 03:08:04;;;;;;;;;;;14.70;78.70;;;;;;4176209;28;19909;-85
2023/08/13 03:10:05;;;;;;;;;;;14.60;78.60;;;;;;4170874;28;19914;-85
2023/08/13 03:12:06;;;;;;;;;;;14.60;78.50;;;;;;4188765;28;20003;-85
2023/08/13 03:14:06;;;;;;;;;;;14.60;78.50;;;;;;4170387;28;19917;-85
2023/08/13 03:16:07;;;;;;;;;;;14.70;78.60;;;;;;4171385;28;19966;-86
2023/08/13 03:18:08;;;;;;;;;;;14.70;78.60;;;;;;4169398;28;19940;-85
2023/08/13 03:20:09;;;;;;;;;;;14.60;78.50;;;;;;4173144;28;19979;-84
2023/08/13 03:22:09;;;;;;;;;;;14.60;78.50;;;;;;4172087;28;20018;-86
2023/08/13 03:24:10;;;;;;;;;;;14.60;78.50;;;;;;4170755;28;19913;-85
2023/08/13 03:26:30;;;;;;;;;;;14.60;78.60;;;;;;4170528;28;19917;-84
2023/08/13 03:28:34;;;;;;;;;;;14.70;78.70;;;;;;4157506;28;19917;-83
2023/08/13 03:30:37;;;;;;;;;;;14.70;78.90;;;;;;4169798;28;19947;-85
2023/08/13 03:32:57;;;;;;;;;;;14.60;78.80;;;;;;4172209;28;19920;-85
2023/08/13 03:34:58;;;;;;;;;;;14.60;78.70;;;;;;4174795;28;19917;-85
2023/08/13 03:37:18;;;;;;;;;;;14.70;78.70;;;;;;4170614;28;19917;-85
2023/08/13 03:39:39;;;;;;;;;;;14.70;78.60;;;;;;4171761;28;19913;-85
2023/08/13 03:41:59;;;;;;;;;;;14.60;78.50;;;;;;4171810;28;19987;-85
2023/08/13 03:44:09;;;;;;;;;;;14.70;78.70;;;;;;4169970;28;19913;-86
2023/08/13 03:46:29;;;;;;;;;;;14.70;78.80;;;;;;4170304;28;19967;-85
2023/08/13 03:48:50;;;;;;;;;;;14.60;79.50;;;;;;4172057;28;19953;-85
2023/08/13 03:51:10;;;;;;;;;;;14.70;78.80;;;;;;4173975;28;19928;-85
2023/08/13 03:53:31;;;;;;;;;;;14.70;78.70;;;;;;4170531;28;19910;-84
2023/08/13 03:55:51;;;;;;;;;;;14.70;78.80;;;;;;4170960;28;19912;-85
2023/08/13 03:58:12;;;;;;;;;;;14.60;78.70;;;;;;4171206;28;19921;-84
2023/08/13 04:00:32;;;;;;;;;;;14.60;78.80;;;;;;4172610;28;19928;-85
2023/08/13 04:02:33;;;;;;;;;;;14.70;79.10;;;;;;4167531;28;19917;-85
2023/08/13 04:04:34;;;;;;;;;;;14.70;79.00;;;;;;4169817;28;19936;-85
2023/08/13 04:06:34;;;;;;;;;;;14.70;79.00;;;;;;4167747;28;20545;-85
2023/08/13 04:08:35;;;;;;;;;;;14.70;78.90;;;;;;4172681;28;19916;-85
2023/08/13 04:10:36;;;;;;;;;;;14.70;78.80;;;;;;4172832;28;19917;-86
2023/08/13 04:12:36;;;;;;;;;;;14.80;78.70;;;;;;4168474;28;19913;-83
2023/08/13 04:14:37;;;;;;;;;;;14.70;78.80;;;;;;4172944;28;19996;-86
2023/08/13 04:16:37;;;;;;;;;;;14.70;78.80;;;;;;4170672;28;19928;-86
2023/08/13 04:18:38;;;;;;;;;;;14.80;78.90;;;;;;4174699;28;19945;-86
2023/08/13 04:20:41;;;;;;;;;;;14.70;78.80;;;;;;4169469;28;19998;-85
2023/08/13 04:22:42;;;;;;;;;;;14.80;78.90;;;;;;4171545;28;19921;-85
2023/08/13 04:24:47;;;;;;;;;;;14.90;79.10;;;;;;4170883;28;19959;-86
2023/08/13 04:26:48;;;;;;;;;;;14.80;79.00;;;;;;4173116;28;19955;-86
2023/08/13 04:28:48;;;;;;;;;;;14.80;79.00;;;;;;4175034;28;19921;-85
2023/08/13 04:30:49;;;;;;;;;;;14.80;79.10;;;;;;4172922;28;19994;-86
2023/08/13 04:32:55;;;;;;;;;;;14.80;79.10;;;;;;4173142;28;20353;-86
2023/08/13 04:34:56;;;;;;;;;;;14.90;79.20;;;;;;4176592;28;19962;-85
2023/08/13 04:36:56;;;;;;;;;;;14.80;79.10;;;;;;4176869;28;19909;-85
2023/08/13 04:38:57;;;;;;;;;;;14.90;79.20;;;;;;4174276;28;19920;-85
2023/08/13 04:40:58;;;;;;;;;;;14.90;79.20;;;;;;4170403;28;19959;-85
2023/08/13 04:42:58;;;;;;;;;;;15.00;79.40;;;;;;4174713;28;19963;-85
2023/08/13 04:45:19;;;;;;;;;;;15.00;79.60;;;;;;4177166;28;19916;-85
2023/08/13 04:47:20;;;;;;;;;;;15.00;79.60;;;;;;4174744;28;19963;-85
2023/08/13 04:49:21;;;;;;;;;;;15.00;79.80;;;;;;4177107;28;19909;-87
2023/08/13 04:51:42;;;;;;;;;;;15.00;79.90;;;;;;4174910;28;19917;-86
2023/08/13 04:54:02;;;;;;;;;;;15.10;80.10;;;;;;4177282;28;20007;-85
2023/08/13 04:56:23;;;;;;;;;;;15.10;79.90;;;;;;4174487;28;19953;-85
2023/08/13 04:58:43;;;;;;;;;;;15.20;79.80;;;;;;4172434;28;19952;-85
2023/08/13 05:00:49;;;;;;;;;;;15.10;80.10;;;;;;4175493;28;19920;-85
2023/08/13 05:03:09;;;;;;;;;;;15.10;80.10;;;;;;4172813;28;19914;-85
2023/08/13 05:05:30;;;;;;;;;;;15.20;80.10;;;;;;4177451;28;19955;-86
2023/08/13 05:07:50;;;;;;;;;;;15.30;80.20;;;;;;4173559;28;20009;-86
2023/08/13 05:10:11;;;;;;;;;;;15.30;80.30;;;;;;4178546;28;19940;-85
2023/08/13 05:12:32;;;;;;;;;;;15.20;80.40;;;;;;4174522;28;19909;-86
2023/08/13 05:14:36;;;;;;;;;;;15.30;80.30;;;;;;4173102;28;20027;-86
2023/08/13 05:16:57;;;;;;;;;;;15.30;80.20;;;;;;4174613;28;19971;-84
2023/08/13 05:19:17;;;;;;;;;;;15.30;79.90;;;;;;4171723;28;19963;-86
2023/08/13 05:21:38;;;;;;;;;;;15.40;80.20;;;;;;4175022;28;19923;-86
2023/08/13 05:23:58;;;;;;;;;;;15.40;80.10;;;;;;4175669;28;20004;-86
2023/08/13 05:26:19;;;;;;;;;;;15.50;80.20;;;;;;4173721;28;19948;-85
2023/08/13 05:28:40;;;;;;;;;;;15.50;80.30;;;;;;4171538;28;19913;-86
2023/08/13 05:31:03;;;;;;;;;;;15.60;80.20;;;;;;4176719;28;19924;-85
2023/08/13 05:33:24;;;;;;;;;;;15.50;80.30;;;;;;4173994;28;19963;-86
2023/08/13 05:35:44;;;;;;;;;;;15.50;80.20;;;;;;4172035;28;20000;-86
2023/08/13 05:38:05;;;;;;;;;;;15.60;80.10;;;;;;4175977;28;19912;-86
2023/08/13 05:40:26;;;;;;;;;;;15.60;80.10;;;;;;4172944;28;19913;-86
2023/08/13 05:42:47;;;;;;;;;;;15.60;80.00;;;;;;4175421;28;19909;-85
2023/08/13 05:45:07;;;;;;;;;;;15.70;80.10;;;;;;4176725;28;19920;-86
2023/08/13 05:47:28;;;;;;;;;;;15.70;80.00;;;;;;4171133;28;19913;-86
2023/08/13 05:49:48;;;;;;;;;;;15.80;80.30;;;;;;4175374;28;20000;-86
2023/08/13 05:51:49;;;;;;;;;;;15.70;80.80;;;;;;4177992;28;19917;-87
2023/08/13 05:53:49;;;;;;;;;;;15.70;80.80;;;;;;4172419;28;19913;-86
2023/08/13 05:55:50;;;;;;;;;;;15.80;80.40;;;;;;4174694;28;19909;-87
2023/08/13 05:57:51;;;;;;;;;;;15.80;80.30;;;;;;4172434;28;20185;-86
2023/08/13 05:59:52;;;;;;;;;;;15.90;80.40;;;;;;4176580;28;20003;-87
2023/08/13 06:01:53;;;;;;;;;;;15.90;81.00;;;;;;4178454;28;19909;-86
2023/08/13 06:03:53;;;;;;;;;;;15.90;80.90;;;;;;4171326;28;19967;-87
2023/08/13 06:05:54;;;;;;;;;;;15.90;80.80;;;;;;4173886;28;19917;-86
2023/08/13 06:07:55;;;;;;;;;;;16.00;80.70;;;;;;4172272;28;19916;-86
2023/08/13 06:09:56;;;;;;;;;;;15.90;80.80;;;;;;4162608;28;19924;-86
2023/08/13 06:11:56;;;;;;;;;;;16.00;81.20;;;;;;4189463;28;19916;-87
2023/08/13 06:13:57;;;;;;;;;;;16.10;81.20;;;;;;4172898;28;19912;-87
2023/08/13 06:15:57;;;;;;;;;;;16.10;81.80;;;;;;4172191;28;19959;-86
2023/08/13 06:17:58;;;;;;;;;;;16.30;82.30;;;;;;4174286;28;20012;-87
2023/08/13 06:20:00;;;;;;;;;;;16.30;82.60;;;;;;4173274;28;19970;-88
2023/08/13 06:22:00;;;;;;;;;;;16.30;82.20;;;;;;4173284;28;20094;-87
2023/08/13 06:24:01;;;;;;;;;;;16.30;82.30;;;;;;4177651;28;19917;-87
2023/08/13 06:26:02;;;;;;;;;;;16.40;82.30;;;;;;4170935;28;20646;-87
2023/08/13 06:28:02;;;;;;;;;;;16.40;82.50;;;;;;4171922;28;19909;-87
2023/08/13 06:30:03;;;;;;;;;;;16.50;82.10;;;;;;4171003;28;19913;-88
2023/08/13 06:32:06;;;;;;;;;;;16.50;82.60;;;;;;4173962;28;20298;-86
2023/08/13 06:34:07;;;;;;;;;;;16.60;82.40;;;;;;4170535;28;20009;-88
2023/08/13 06:36:10;;;;;;;;;;;16.70;82.50;;;;;;4175352;28;19909;-88
2023/08/13 06:38:11;;;;;;;;;;;16.70;83.10;;;;;;4158987;28;19909;-89
2023/08/13 06:40:12;;;;;;;;;;;16.80;83.10;;;;;;4171569;28;19916;-87
2023/08/13 06:42:12;;;;;;;;;;;16.90;83.00;;;;;;4171012;28;19917;-90
2023/08/13 06:44:20;;;;;;;;;;;16.90;83.70;;;;;;4172770;28;19913;-89
2023/08/13 06:46:34;;;;;;;;;;;17.00;82.90;;;;;;4173456;28;19917;-89
2023/08/13 06:48:43;;;;;;;;;;;17.00;83.40;;;;;;4154731;28;19909;-89
2023/08/13 06:50:46;;;;;;;;;;;17.10;83.40;;;;;;4170304;28;19920;-89
2023/08/13 06:52:47;;;;;;;;;;;17.30;83.30;;;;;;4172731;28;19935;-88
2023/08/13 06:54:49;;;;;;;;;;;17.40;83.00;;;;;;4177243;28;20628;-89
2023/08/13 06:56:50;;;;;;;;;;;17.40;83.40;;;;;;4172856;28;19913;-90
2023/08/13 06:58:50;;;;;;;;;;;17.40;83.30;;;;;;4166894;28;19913;-88
2023/08/13 07:00:51;;;;;;;;;;;17.40;83.30;;;;;;4161271;28;20011;-89
2023/08/13 07:02:52;;;;;;;;;;;17.60;83.40;;;;;;4174819;28;19915;-89
2023/08/13 07:04:52;;;;;;;;;;;17.70;83.30;;;;;;4171660;28;19943;-90
2023/08/13 07:06:53;;;;;;;;;;;17.70;83.40;;;;;;4159874;28;19917;-89
2023/08/13 07:08:53;;;;;;;;;;;17.80;83.20;;;;;;4171371;28;19912;-91
2023/08/13 07:10:54;;;;;;;;;;;17.90;83.40;;;;;;4184000;28;19917;-90
2023/08/13 07:12:55;;;;;;;;;;;17.90;83.50;;;;;;4162564;28;19909;-90
2023/08/13 07:14:55;;;;;;;;;;;18.00;83.50;;;;;;4173982;28;19927;-89
2023/08/13 07:16:56;;;;;;;;;;;18.10;83.30;;;;;;4198006;22;19983;-84
2023/08/13 07:18:58;;;;;;;;;;;18.10;83.50;;;;;;4180392;28;20234;-82
2023/08/13 07:20:58;;;;;;;;;;;18.30;83.50;;;;;;4184712;28;19908;-84
2023/08/13 07:23:19;;;;;;;;;;;18.30;83.20;;;;;;4186413;28;19913;-85
2023/08/13 07:25:39;;;;;;;;;;;18.40;83.10;;;;;;4183799;28;19909;-85
2023/08/13 07:28:00;;;;;;;;;;;18.40;83.00;;;;;;4178067;28;19913;-85
2023/08/13 07:30:21;;;;;;;;;;;18.50;82.70;;;;;;4177738;28;20377;-84
2023/08/13 07:32:41;;;;;;;;;;;18.60;82.40;;;;;;4183244;28;19917;-85
2023/08/13 07:35:02;;;;;;;;;;;18.70;82.10;;;;;;4182060;28;19955;-85
2023/08/13 07:37:22;;;;;;;;;;;18.70;81.40;;;;;;4179732;28;19914;-85
2023/08/13 07:39:43;;;;;;;;;;;18.80;81.40;;;;;;4183456;28;19916;-85
2023/08/13 07:42:04;;;;;;;;;;;19.00;81.20;;;;;;4177523;28;19923;-85
2023/08/13 07:44:25;;;;;;;;;;;19.00;81.00;;;;;;4177346;28;19936;-85
2023/08/13 07:46:46;;;;;;;;;;;19.10;80.70;;;;;;4177371;28;20002;-86
2023/08/13 07:48:53;;;;;;;;;;;19.10;79.70;;;;;;4180244;28;19915;-85
2023/08/13 07:51:13;;;;;;;;;;;19.20;79.80;;;;;;4176621;28;19927;-85
2023/08/13 07:53:34;;;;;;;;;;;19.20;79.20;;;;;;4175252;28;20006;-85
2023/08/13 07:55:54;;;;;;;;;;;19.30;79.10;;;;;;4182743;28;19924;-85
2023/08/13 07:58:18;;;;;;;;;;;19.30;78.80;;;;;;4174021;28;19912;-86
2023/08/13 08:00:39;;;;;;;;;;;19.40;78.70;;;;;;4174995;28;19913;-85
2023/08/13 08:03:00;;;;;;;;;;;19.50;78.50;;;;;;4176526;28;19909;-85
2023/08/13 08:05:21;;;;;;;;;;;19.60;78.20;;;;;;4177244;28;20019;-85
2023/08/13 08:07:41;;;;;;;;;;;19.60;78.20;;;;;;4180091;28;19948;-85
2023/08/13 08:10:02;;;;;;;;;;;19.60;78.20;;;;;;4176290;28;20050;-85
2023/08/13 08:12:22;;;;;;;;;;;19.70;78.00;;;;;;4175258;28;19925;-85
2023/08/13 08:14:43;;;;;;;;;;;19.70;78.10;;;;;;4174192;28;19913;-85
2023/08/13 08:17:05;;;;;;;;;;;19.80;77.60;;;;;;4174137;28;19924;-85
2023/08/13 08:19:26;;;;;;;;;;;19.90;77.60;;;;;;4179596;28;19991;-85
2023/08/13 08:21:46;;;;;;;;;;;19.90;77.60;;;;;;4173480;28;19948;-85
2023/08/13 08:24:07;;;;;;;;;;;20.10;77.00;;;;;;4172391;28;19952;-85
2023/08/13 08:26:31;;;;;;;;;;;20.10;75.30;;;;;;4174832;28;19921;-85
2023/08/13 08:28:53;;;;;;;;;;;20.10;73.70;;;;;;4176985;28;19917;-83
2023/08/13 08:31:14;;;;;;;;;;;20.20;73.90;;;;;;4176591;28;19923;-85
2023/08/13 08:33:34;;;;;;;;;;;20.40;73.80;;;;;;4175319;28;19912;-85
2023/08/13 08:35:36;;;;;;;;;;;20.30;74.60;;;;;;4176269;28;19916;-84
2023/08/13 08:37:36;;;;;;;;;;;20.40;73.60;;;;;;4176052;28;19917;-84
2023/08/13 08:39:37;;;;;;;;;;;20.40;73.30;;;;;;4158738;28;20016;-85
2023/08/13 08:41:40;;;;;;;;;;;20.50;73.30;;;;;;4175065;28;19956;-84
2023/08/13 08:43:41;;;;;;;;;;;20.60;72.80;;;;;;4173853;28;19916;-84
2023/08/13 08:45:43;;;;;;;;;;;20.60;73.50;;;;;;4173292;28;19913;-84
2023/08/13 08:48:05;;;;;;;;;;;20.70;73.30;;;;;;4177022;28;20043;-85
2023/08/13 08:50:26;;;;;;;;;;;20.70;73.20;;;;;;4175783;28;19920;-84
2023/08/13 08:52:47;;;;;;;;;;;20.80;71.90;;;;;;4176593;28;19916;-84
2023/08/13 08:54:48;;;;;;;;;;;20.90;71.70;;;;;;4176073;28;19917;-84
2023/08/13 08:57:09;;;;;;;;;;;20.90;72.20;;;;;;4180268;28;19913;-85
2023/08/13 08:59:29;;;;;;;;;;;20.90;72.00;;;;;;4171341;28;19963;-84
2023/08/13 09:01:50;;;;;;;;;;;21.00;71.60;;;;;;4172614;28;19919;-86
2023/08/13 09:04:10;;;;;;;;;;;21.00;72.00;;;;;;4175444;28;19920;-85
2023/08/13 09:06:11;;;;;;;;;;;21.00;70.60;;;;;;4186299;28;20382;-84
2023/08/13 09:08:12;;;;;;;;;;;21.10;69.80;;;;;;4174706;28;19913;-84
2023/08/13 09:10:13;;;;;;;;;;;21.10;70.10;;;;;;4189380;28;20246;-85
2023/08/13 09:12:14;;;;;;;;;;;21.10;70.60;;;;;;4165217;28;19909;-84
2023/08/13 09:14:15;;;;;;;;;;;21.20;70.90;;;;;;4176846;28;19913;-84
2023/08/13 09:16:16;;;;;;;;;;;21.20;71.50;;;;;;4180076;28;20052;-84
2023/08/13 09:18:16;;;;;;;;;;;21.30;70.90;;;;;;4180969;28;19933;-84
2023/08/13 09:20:18;;;;;;;;;;;21.40;69.60;;;;;;4179247;28;20128;-85
2023/08/13 09:22:19;;;;;;;;;;;21.40;70.60;;;;;;4173284;28;20377;-85
2023/08/13 09:24:30;;;;;;;;;;;21.50;70.30;;;;;;4179378;28;19917;-84
2023/08/13 09:26:31;;;;;;;;;;;21.50;71.00;;;;;;4180271;28;20378;-85
2023/08/13 09:28:32;;;;;;;;;;;21.60;69.80;;;;;;4177949;28;20039;-82
2023/08/13 09:30:33;;;;;;;;;;;21.60;68.70;;;;;;4181687;28;20037;-84
2023/08/13 09:32:33;;;;;;;;;;;21.60;67.40;;;;;;4179313;28;19912;-82
2023/08/13 09:34:34;;;;;;;;;;;21.70;69.50;;;;;;4184537;28;19920;-82
2023/08/13 09:36:35;;;;;;;;;;;21.80;69.10;;;;;;4182706;28;19913;-83
2023/08/13 09:38:36;;;;;;;;;;;21.90;69.10;;;;;;4182752;28;19916;-82
2023/08/13 09:40:37;;;;;;;;;;;21.90;70.00;;;;;;4194049;28;19916;-83
2023/08/13 09:42:38;;;;;;;;;;;22.00;70.00;;;;;;4184159;28;19920;-83
2023/08/13 09:44:39;;;;;;;;;;;22.00;69.40;;;;;;4188155;28;19909;-82
2023/08/13 09:46:40;;;;;;;;;;;22.10;69.30;;;;;;4191237;28;19908;-82
2023/08/13 09:48:41;;;;;;;;;;;22.20;69.50;;;;;;4189928;28;19917;-83
2023/08/13 09:50:43;;;;;;;;;;;22.30;69.00;;;;;;4183914;28;19912;-83
2023/08/13 09:52:47;;;;;;;;;;;22.30;68.70;;;;;;4185363;28;19921;-83
2023/08/13 09:55:11;;;;;;;;;;;22.40;69.50;;;;;;4184699;28;19917;-84
2023/08/13 09:57:14;;;;;;;;;;;22.50;69.60;;;;;;4186704;28;19959;-83
2023/08/13 09:59:35;;;;;;;;;;;22.60;68.30;;;;;;4187841;28;19971;-83
2023/08/13 10:01:56;;;;;;;;;;;22.60;68.50;;;;;;4184727;28;19997;-83
2023/08/13 10:04:20;;;;;;;;;;;22.70;69.10;;;;;;4180445;28;20454;-82
2023/08/13 10:06:40;;;;;;;;;;;22.70;67.60;;;;;;4183965;28;20592;-84
2023/08/13 10:09:01;;;;;;;;;;;22.70;66.40;;;;;;4185185;28;20719;-83
2023/08/13 10:11:22;;;;;;;;;;;22.70;65.80;;;;;;4180147;28;19920;-83
2023/08/13 10:13:43;;;;;;;;;;;22.80;65.40;;;;;;4185330;28;19985;-83
2023/08/13 10:16:04;;;;;;;;;;;22.80;67.60;;;;;;4181323;28;20387;-83
2023/08/13 10:18:25;;;;;;;;;;;22.80;67.70;;;;;;4184940;28;19916;-83
2023/08/13 10:20:46;;;;;;;;;;;22.90;67.80;;;;;;4183101;28;20426;-83
2023/08/13 10:23:08;;;;;;;;;;;22.90;65.30;;;;;;4185320;28;20452;-83
2023/08/13 10:25:24;;;;;;;;;;;22.90;63.50;;;;;;4185876;28;20449;-84
2023/08/13 10:27:25;;;;;;;;;;;22.90;61.50;;;;;;4179851;28;19913;-82
2023/08/13 10:29:34;;;;;;;;;;;22.90;61.50;;;;;;4182825;28;19923;-83
2023/08/13 10:31:35;;;;;;;;;;;22.80;63.30;;;;;;4184498;28;20007;-83
2023/08/13 10:33:36;;;;;;;;;;;22.80;62.30;;;;;;4187943;28;20301;-83
2023/08/13 10:35:39;;;;;;;;;;;22.80;60.30;;;;;;4180342;28;19920;-83
2023/08/13 10:37:48;;;;;;;;;;;22.80;59.90;;;;;;4181881;28;19913;-83
2023/08/13 10:39:48;;;;;;;;;;;22.70;61.00;;;;;;4195568;28;20462;-83
2023/08/13 10:41:49;;;;;;;;;;;22.70;60.20;;;;;;4183379;28;19944;-84
2023/08/13 10:43:58;;;;;;;;;;;22.70;61.30;;;;;;4179750;28;19916;-83
2023/08/13 10:45:59;;;;;;;;;;;22.70;62.90;;;;;;4184524;28;19966;-83
2023/08/13 10:48:03;;;;;;;;;;;22.70;63.40;;;;;;4182150;28;19976;-83
2023/08/13 10:50:05;;;;;;;;;;;22.70;63.90;;;;;;4179338;28;20510;-84
2023/08/13 10:52:06;;;;;;;;;;;22.70;62.00;;;;;;4182124;28;19917;-82
2023/08/13 10:54:07;;;;;;;;;;;22.80;61.80;;;;;;4182508;28;19965;-83
2023/08/13 10:56:29;;;;;;;;;;;22.70;60.60;;;;;;4165647;28;19956;-84
2023/08/13 10:58:39;;;;;;;;;;;22.70;61.30;;;;;;4177130;28;20301;-83
2023/08/13 11:00:42;;;;;;;;;;;22.70;60.10;;;;;;4158700;28;19921;-83
2023/08/13 11:03:16;;;;;;;;;;;22.70;60.30;;;;;;4177884;28;19913;-84
2023/08/13 11:05:37;;;;;;;;;;;22.60;59.40;;;;;;4181489;28;20003;-83
2023/08/13 11:07:58;;;;;;;;;;;22.70;61.00;;;;;;4185307;28;19932;-83
2023/08/13 11:10:19;;;;;;;;;;;22.50;60.10;;;;;;4185166;28;20051;-83
2023/08/13 11:12:29;;;;;;;;;;;22.50;59.40;;;;;;4164342;28;19916;-82
2023/08/13 11:14:50;;;;;;;;;;;22.50;59.50;;;;;;4180087;28;19913;-83
2023/08/13 11:17:11;;;;;;;;;;;22.50;61.10;;;;;;4183459;28;19917;-84
2023/08/13 11:19:31;;;;;;;;;;;22.50;60.80;;;;;;4176961;28;20441;-84
2023/08/13 11:21:52;;;;;;;;;;;22.50;60.90;;;;;;4183408;28;20096;-83
2023/08/13 11:24:13;;;;;;;;;;;22.50;61.30;;;;;;4182665;28;19912;-83
2023/08/13 11:26:34;;;;;;;;;;;22.50;60.80;;;;;;4180279;28;19923;-83
2023/08/13 11:28:57;;;;;;;;;;;22.60;61.40;;;;;;4179059;28;20409;-83
2023/08/13 11:31:18;;;;;;;;;;;22.60;61.30;;;;;;4177902;28;20394;-83
2023/08/13 11:33:39;;;;;;;;;;;22.60;60.00;;;;;;4176280;28;20248;-83
2023/08/13 11:36:00;;;;;;;;;;;22.60;58.70;;;;;;4179343;28;20443;-84
2023/08/13 11:38:20;;;;;;;;;;;22.60;59.10;;;;;;4178204;28;20370;-83
2023/08/13 11:40:41;;;;;;;;;;;22.60;59.00;;;;;;4173595;28;20313;-82
2023/08/13 11:43:03;;;;;;;;;;;22.60;59.70;;;;;;4195193;28;19901;-85
2023/08/13 11:45:26;;;;;;;;;;;22.60;59.30;;;;;;4196621;28;19924;-84
2023/08/13 11:47:47;;;;;;;;;;;22.60;59.60;;;;;;4203080;28;20448;-83
2023/08/13 11:50:17;;;;;;;;;;;22.60;59.90;;;;;;4196747;28;20380;-83
2023/08/13 11:52:37;;;;;;;;;;;22.60;59.20;;;;;;4197447;28;20378;-85
2023/08/13 11:54:58;;;;;;;;;;;22.60;59.60;;;;;;4198111;28;19948;-84
2023/08/13 11:57:20;;;;;;;;;;;22.60;59.60;;;;;;4180214;28;20382;-83
2023/08/13 11:59:40;;;;;;;;;;;22.60;59.60;;;;;;4173810;28;20541;-85
2023/08/13 12:02:01;;;;;;;;;;;22.60;58.00;;;;;;4181082;28;20287;-83
2023/08/13 12:04:22;;;;;;;;;;;22.70;58.00;;;;;;4173473;28;19935;-83
2023/08/13 12:06:44;;;;;;;;;;;22.60;58.50;;;;;;4189389;28;20367;-83
2023/08/13 12:09:05;;;;;;;;;;;22.60;59.30;;;;;;4182310;28;20306;-83
2023/08/13 12:11:25;;;;;;;;;;;22.60;59.70;;;;;;4179838;28;20290;-84
2023/08/13 12:13:46;;;;;;;;;;;22.60;60.20;;;;;;4180153;28;19913;-83
2023/08/13 12:16:06;;;;;;;;;;;22.60;60.10;;;;;;4179382;28;19920;-83
2023/08/13 12:18:27;;;;;;;;;;;22.60;60.50;;;;;;4180629;28;20437;-84
2023/08/13 12:20:48;;;;;;;;;;;22.60;59.80;;;;;;4181273;28;20797;-83
2023/08/13 12:23:08;;;;;;;;;;;22.60;60.40;;;;;;4176346;28;20412;-83
2023/08/13 12:25:29;;;;;;;;;;;22.70;59.70;;;;;;4178263;28;20360;-83
2023/08/13 12:27:53;;;;;;;;;;;22.70;59.30;;;;;;4174376;28;20239;-83
2023/08/13 12:30:14;;;;;;;;;;;22.70;58.80;;;;;;4180151;28;20294;-85
2023/08/13 12:32:34;;;;;;;;;;;22.80;59.50;;;;;;4177410;28;20229;-85
2023/08/13 12:34:35;;;;;;;;;;;22.80;59.00;;;;;;4176088;28;19919;-84
2023/08/13 12:36:35;;;;;;;;;;;22.80;58.20;;;;;;4170328;28;19952;-84
2023/08/13 12:38:38;;;;;;;;;;;22.80;58.80;;;;;;4172591;28;19909;-84